| time (UTC) | temp F | wind direction | speed MPH | gust MPH | rain 1hr in | rain 24hr in | rain mn in | humidity % | barometer mb |
| 20260507133036 | 46 | 0 | 3.0 | 9.0 | 0.00 | 0.00 | 0.00 | 63 | 1013.8 |
| 20260507132036 | 47 | 338 | 2.0 | 8.0 | 0.00 | 0.00 | 0.00 | 62 | 1013.7 |
| 20260507131016 | 46 | 338 | 3.0 | 8.0 | 0.00 | 0.00 | 0.00 | 62 | 1013.7 |
| 20260507130016 | 46 | 45 | 2.0 | 6.0 | 0.00 | 0.00 | 0.00 | 63 | 1013.7 |
| 20260507125016 | 48 | 315 | 5.0 | 10.0 | 0.00 | 0.00 | 0.00 | 56 | 1013.7 |
| 20260507124056 | 48 | 293 | 4.0 | 9.0 | 0.00 | 0.00 | 0.00 | 49 | 1013.5 |
| 20260507123016 | 47 | 270 | 3.0 | 11.0 | 0.00 | 0.00 | 0.00 | 51 | 1013.5 |
| 20260507122016 | 47 | 293 | 3.0 | 7.0 | 0.00 | 0.00 | 0.00 | 54 | 1013.4 |
| 20260507121016 | 46 | 248 | 2.0 | 8.0 | 0.00 | 0.00 | 0.00 | 52 | 1013.4 |
| 20260507120016 | 46 | 248 | 3.0 | 7.0 | 0.00 | 0.00 | 0.00 | 52 | 1013.3 |
| 20260507115036 | 46 | 270 | 4.0 | 12.0 | 0.00 | 0.00 | 0.00 | 52 | 1013.4 |
| 20260507114016 | 46 | 270 | 5.0 | 10.0 | 0.00 | 0.00 | 0.00 | 53 | 1013.2 |
| 20260507113016 | 46 | 270 | 3.0 | 10.0 | 0.00 | 0.00 | 0.00 | 52 | 1013.2 |
| 20260507112016 | 47 | 225 | 4.0 | 8.0 | 0.00 | 0.00 | 0.00 | 47 | 1013.1 |
| 20260507111036 | 47 | 270 | 5.0 | 11.0 | 0.00 | 0.00 | 0.00 | 46 | 1012.9 |
| 20260507110016 | 47 | 225 | 3.0 | 9.0 | 0.00 | 0.00 | 0.00 | 49 | 1012.8 |
| 20260507105016 | 47 | 248 | 4.0 | 9.0 | 0.00 | 0.00 | 0.00 | 48 | 1012.7 |
| 20260507104016 | 47 | 248 | 3.0 | 8.0 | 0.00 | 0.00 | 0.00 | 49 | 1012.6 |
| 20260507103016 | 46 | 225 | 3.0 | 7.0 | 0.00 | 0.00 | 0.00 | 49 | 1012.5 |
| 20260507102016 | 46 | 248 | 4.0 | 10.0 | 0.00 | 0.00 | 0.00 | 49 | 1012.4 |
| 20260507101016 | 45 | 248 | 4.0 | 9.0 | 0.00 | 0.00 | 0.00 | 50 | 1012.4 |
| 20260507100016 | 45 | 270 | 4.0 | 11.0 | 0.00 | 0.00 | 0.00 | 50 | 1012.4 |
| 20260507095015 | 45 | 270 | 4.0 | 10.0 | 0.00 | 0.00 | 0.00 | 51 | 1012.3 |
| 20260507094015 | 46 | 293 | 2.0 | 5.0 | 0.00 | 0.00 | 0.00 | 57 | 1012.4 |
| 20260507093016 | 47 | 293 | 3.0 | 9.0 | 0.00 | 0.00 | 0.00 | 54 | 1012.2 |
| 20260507092016 | 48 | 248 | 3.0 | 7.0 | 0.00 | 0.00 | 0.00 | 48 | 1012.1 |
| 20260507091015 | 49 | 158 | 2.0 | 9.0 | 0.00 | 0.00 | 0.00 | 49 | 1012.1 |
| 20260507090015 | 48 | 248 | 2.0 | 7.0 | 0.00 | 0.00 | 0.00 | 48 | 1012.1 |
| 20260507085037 | 49 | 248 | 5.0 | 12.0 | 0.00 | 0.00 | 0.00 | 46 | 1012.1 |
| 20260507084018 | 49 | 248 | 2.0 | 6.0 | 0.00 | 0.00 | 0.00 | 52 | 1012.0 |
| 20260507083017 | 48 | 225 | 3.0 | 8.0 | 0.00 | 0.00 | 0.00 | 51 | 1011.9 |
| 20260507082017 | 47 | 225 | 2.0 | 5.0 | 0.00 | 0.00 | 0.00 | 57 | 1011.8 |
| 20260507081057 | 47 | 158 | 2.0 | 6.0 | 0.00 | 0.00 | 0.00 | 61 | 1011.8 |
| 20260507080017 | 45 | 158 | 2.0 | 4.0 | 0.00 | 0.00 | 0.00 | 63 | 1011.7 |
| 20260507075017 | 44 | 158 | 4.0 | 8.0 | 0.00 | 0.00 | 0.00 | 65 | 1011.6 |
| 20260507074017 | 43 | 135 | 2.0 | 6.0 | 0.00 | 0.00 | 0.00 | 68 | 1011.6 |
| 20260507073017 | 42 | 135 | 2.0 | 6.0 | 0.00 | 0.00 | 0.00 | 69 | 1011.5 |
| 20260507072017 | 41 | 203 | 1.0 | 7.0 | 0.00 | 0.00 | 0.00 | 71 | 1011.5 |
| 20260507071037 | 40 | 203 | 1.0 | 4.0 | 0.00 | 0.00 | 0.00 | 74 | 1011.4 |
| 20260507070057 | 39 | 158 | 2.0 | 6.0 | 0.00 | 0.00 | 0.00 | 74 | 1011.3 |
| 20260507065017 | 38 | 225 | 2.0 | 5.0 | 0.00 | 0.00 | 0.00 | 76 | 1011.3 |
| 20260507064017 | 38 | 225 | 2.0 | 5.0 | 0.00 | 0.00 | 0.00 | 79 | 1011.2 |
| 20260507063017 | 37 | 248 | 1.0 | 4.0 | 0.00 | 0.00 | 0.00 | 82 | 1011.2 |
| 20260507062017 | 37 | 203 | 1.0 | 4.0 | 0.00 | 0.00 | 0.00 | 83 | 1011.1 |
| 20260507061017 | 36 | 225 | 2.0 | 6.0 | 0.00 | 0.00 | 0.00 | 86 | 1011.1 |
| 20260507060017 | 36 | 0.0 | 2.0 | 0.00 | 0.00 | 0.00 | 89 | 1011.0 | |
| 20260507055017 | 34 | 248 | 1.0 | 4.0 | 0.00 | 0.00 | 0.00 | 89 | 1011.0 |
| 20260507054037 | 34 | 248 | 1.0 | 4.0 | 0.00 | 0.00 | 0.00 | 90 | 1010.9 |
| 20260507053017 | 33 | 248 | 3.0 | 9.0 | 0.00 | 0.00 | 0.00 | 91 | 1010.9 |
| 20260507052017 | 32 | 225 | 2.0 | 6.0 | 0.00 | 0.00 | 0.00 | 91 | 1010.8 |
| 20260507051017 | 32 | 225 | 1.0 | 5.0 | 0.00 | 0.00 | 0.00 | 91 | 1010.7 |
| 20260507050017 | 32 | 0.0 | 3.0 | 0.00 | 0.00 | 0.00 | 91 | 1010.6 | |
| 20260507045017 | 32 | 270 | 1.0 | 3.0 | 0.00 | 0.00 | 0.00 | 92 | 1010.5 |
| 20260507044017 | 32 | 248 | 1.0 | 4.0 | 0.00 | 0.00 | 0.00 | 92 | 1010.5 |
| 20260507043017 | 31 | 203 | 1.0 | 5.0 | 0.00 | 0.00 | 0.00 | 92 | 1010.4 |
| 20260507042017 | 31 | 203 | 1.0 | 3.0 | 0.00 | 0.00 | 0.00 | 92 | 1010.4 |
| 20260507041017 | 30 | 225 | 2.0 | 4.0 | 0.00 | 0.00 | 0.00 | 92 | 1010.3 |
| 20260507040017 | 30 | 0.0 | 2.0 | 0.00 | 0.00 | 0.00 | 92 | 1010.3 | |
| 20260507035037 | 30 | 225 | 1.0 | 2.0 | 0.00 | 0.00 | 0.00 | 92 | 1010.2 |
| 20260507034017 | 29 | 225 | 1.0 | 2.0 | 0.00 | 0.00 | 0.00 | 92 | 1010.2 |
| 20260507033017 | 30 | 0.0 | 0.0 | 0.00 | 0.00 | 0.00 | 92 | 1010.2 | |
| 20260507032017 | 30 | 0.0 | 0.0 | 0.00 | 0.00 | 0.00 | 92 | 1010.1 | |
| 20260507031017 | 30 | 0.0 | 0.0 | 0.00 | 0.00 | 0.00 | 92 | 1010.1 | |
| 20260507030017 | 30 | 0.0 | 0.0 | 0.00 | 0.00 | 0.00 | 92 | 1010.2 | |
| 20260507025017 | 30 | 0.0 | 0.0 | 0.00 | 0.00 | 0.00 | 92 | 1010.1 | |
| 20260507024017 | 30 | 0.0 | 0.0 | 0.00 | 0.00 | 0.00 | 92 | 1010.1 | |
| 20260507023037 | 30 | 0.0 | 0.0 | 0.00 | 0.00 | 0.00 | 92 | 1010.0 | |
| 20260507022017 | 30 | 0.0 | 0.0 | 0.00 | 0.00 | 0.00 | 92 | 1010.1 | |
| 20260507021017 | 30 | 0.0 | 0.0 | 0.00 | 0.00 | 0.00 | 92 | 1010.0 | |
| 20260507020017 | 30 | 0.0 | 0.0 | 0.00 | 0.00 | 0.00 | 91 | 1010.0 | |
| 20260507015057 | 30 | 0.0 | 0.0 | 0.00 | 0.00 | 0.00 | 91 | 1009.9 | |
| 20260507014016 | 30 | 0.0 | 0.0 | 0.00 | 0.00 | 0.00 | 91 | 1009.9 | |
| 20260507013017 | 30 | 0.0 | 0.0 | 0.00 | 0.00 | 0.00 | 91 | 1009.8 | |
| 20260507012016 | 30 | 0.0 | 0.0 | 0.00 | 0.00 | 0.00 | 91 | 1009.8 | |
| 20260507011016 | 31 | 0.0 | 2.0 | 0.00 | 0.00 | 0.00 | 91 | 1009.9 | |
| 20260507010037 | 31 | 0.0 | 0.0 | 0.00 | 0.00 | 0.00 | 91 | 1009.9 | |
| 20260507005036 | 31 | 0.0 | 0.0 | 0.00 | 0.00 | 0.00 | 91 | 1009.8 | |
| 20260507004017 | 31 | 0.0 | 0.0 | 0.00 | 0.00 | 0.00 | 91 | 1009.9 | |
| 20260507003017 | 32 | 0.0 | 0.0 | 0.00 | 0.00 | 0.00 | 91 | 1009.9 | |
| 20260507002016 | 32 | 0.0 | 0.0 | 0.00 | 0.00 | 0.00 | 91 | 1009.8 | |
| 20260507001016 | 32 | 0.0 | 1.0 | 0.00 | 0.00 | 0.00 | 91 | 1009.9 | |
| 20260507000016 | 32 | 180 | 1.0 | 3.0 | 0.00 | 0.00 | 0.00 | 90 | 1009.8 |
| 20260506235016 | 32 | 158 | 1.0 | 4.0 | 0.00 | 0.00 | 0.00 | 90 | 1009.7 |
| 20260506234016 | 32 | 225 | 2.0 | 4.0 | 0.00 | 0.00 | 0.00 | 90 | 1009.7 |
| 20260506233016 | 32 | 203 | 1.0 | 3.0 | 0.00 | 0.00 | 0.00 | 90 | 1009.6 |
| 20260506232016 | 32 | 203 | 1.0 | 2.0 | 0.00 | 0.00 | 0.00 | 89 | 1009.5 |
| 20260506231016 | 32 | 0.0 | 2.0 | 0.00 | 0.00 | 0.00 | 89 | 1009.6 | |
| 20260506230016 | 32 | 0.0 | 0.0 | 0.00 | 0.00 | 0.00 | 89 | 1009.6 | |
| 20260506225016 | 33 | 0.0 | 1.0 | 0.00 | 0.00 | 0.00 | 89 | 1009.6 | |
| 20260506224036 | 33 | 0.0 | 1.0 | 0.00 | 0.00 | 0.00 | 89 | 1009.6 | |
| 20260506223016 | 33 | 0.0 | 1.0 | 0.00 | 0.00 | 0.00 | 88 | 1009.6 | |
| 20260506222016 | 33 | 0.0 | 1.0 | 0.00 | 0.00 | 0.00 | 88 | 1009.6 | |
| 20260506221016 | 33 | 0.0 | 2.0 | 0.00 | 0.00 | 0.00 | 88 | 1009.6 | |
| 20260506220016 | 34 | 0.0 | 0.0 | 0.00 | 0.00 | 0.00 | 88 | 1009.5 | |
| 20260506215015 | 34 | 0.0 | 0.0 | 0.00 | 0.00 | 0.00 | 88 | 1009.4 | |
| 20260506214016 | 34 | 0.0 | 2.0 | 0.00 | 0.00 | 0.00 | 88 | 1009.4 | |
| 20260506213016 | 34 | 0.0 | 1.0 | 0.00 | 0.00 | 0.00 | 87 | 1009.4 | |
| 20260506212036 | 34 | 0.0 | 3.0 | 0.00 | 0.00 | 0.00 | 87 | 1009.4 | |
| 20260506211015 | 34 | 0.0 | 0.0 | 0.00 | 0.00 | 0.00 | 87 | 1009.3 | |
| 20260506210015 | 34 | 158 | 2.0 | 4.0 | 0.00 | 0.00 | 0.00 | 87 | 1009.3 |
| 20260506205015 | 35 | 180 | 2.0 | 5.0 | 0.00 | 0.00 | 0.00 | 87 | 1009.1 |
| 20260506204016 | 35 | 0.0 | 2.0 | 0.00 | 0.00 | 0.00 | 86 | 1009.1 | |
| 20260506203015 | 35 | 158 | 1.0 | 4.0 | 0.00 | 0.00 | 0.00 | 86 | 1009.2 |
| 20260506202018 | 36 | 158 | 1.0 | 3.0 | 0.00 | 0.00 | 0.00 | 86 | 1009.0 |
| 20260506201018 | 36 | 158 | 2.0 | 4.0 | 0.00 | 0.00 | 0.00 | 85 | 1009.1 |
| 20260506200017 | 36 | 0.0 | 3.0 | 0.00 | 0.00 | 0.00 | 84 | 1009.1 | |
| 20260506195022 | 37 | 158 | 2.0 | 4.0 | 0.00 | 0.00 | 0.00 | 84 | 1009.0 |
| 20260506194057 | 38 | 180 | 1.0 | 4.0 | 0.00 | 0.00 | 0.00 | 83 | 1009.0 |
| 20260506193017 | 38 | 158 | 1.0 | 3.0 | 0.00 | 0.00 | 0.00 | 83 | 1008.9 |
| 20260506192017 | 38 | 135 | 1.0 | 4.0 | 0.00 | 0.00 | 0.00 | 82 | 1008.8 |
| 20260506191017 | 39 | 158 | 2.0 | 5.0 | 0.00 | 0.00 | 0.00 | 80 | 1008.8 |
| 20260506190018 | 40 | 180 | 2.0 | 5.0 | 0.00 | 0.00 | 0.00 | 79 | 1008.8 |
| 20260506185017 | 39 | 180 | 1.0 | 4.0 | 0.00 | 0.00 | 0.00 | 78 | 1008.7 |
| 20260506184017 | 39 | 158 | 4.0 | 9.0 | 0.00 | 0.00 | 0.00 | 77 | 1008.5 |
| 20260506183017 | 41 | 248 | 3.0 | 7.0 | 0.00 | 0.00 | 0.00 | 77 | 1008.5 |
| 20260506182017 | 40 | 180 | 1.0 | 4.0 | 0.00 | 0.00 | 0.00 | 79 | 1008.4 |
| 20260506181017 | 39 | 158 | 4.0 | 7.0 | 0.00 | 0.00 | 0.00 | 79 | 1008.3 |
| 20260506180017 | 39 | 158 | 4.0 | 7.0 | 0.00 | 0.00 | 0.00 | 80 | 1008.3 |
| 20260506175037 | 39 | 158 | 3.0 | 7.0 | 0.00 | 0.00 | 0.00 | 79 | 1008.3 |
| 20260506174017 | 39 | 158 | 2.0 | 7.0 | 0.00 | 0.00 | 0.00 | 76 | 1008.2 |
| 20260506173017 | 41 | 135 | 4.0 | 11.0 | 0.00 | 0.00 | 0.00 | 71 | 1008.2 |
| 20260506172017 | 45 | 338 | 2.0 | 6.0 | 0.00 | 0.00 | 0.00 | 61 | 1008.2 |
| 20260506171017 | 45 | 293 | 3.0 | 10.0 | 0.00 | 0.00 | 0.00 | 62 | 1007.8 |
| 20260506170017 | 44 | 315 | 5.0 | 11.0 | 0.00 | 0.00 | 0.00 | 62 | 1007.7 |
| 20260506165017 | 43 | 315 | 3.0 | 8.0 | 0.00 | 0.00 | 0.00 | 64 | 1007.7 |
| 20260506164017 | 42 | 270 | 3.0 | 8.0 | 0.00 | 0.00 | 0.00 | 64 | 1007.7 |
| 20260506163017 | 42 | 293 | 1.0 | 3.0 | 0.00 | 0.00 | 0.00 | 63 | 1007.7 |
| 20260506162017 | 43 | 293 | 4.0 | 8.0 | 0.00 | 0.00 | 0.00 | 61 | 1007.8 |
| 20260506161017 | 43 | 293 | 4.0 | 8.0 | 0.00 | 0.00 | 0.00 | 61 | 1007.6 |
| 20260506160017 | 44 | 315 | 4.0 | 10.0 | 0.00 | 0.00 | 0.00 | 61 | 1007.6 |
| 20260506155017 | 44 | 338 | 5.0 | 11.0 | 0.00 | 0.01 | 0.00 | 60 | 1007.6 |
| 20260506154037 | 44 | 338 | 4.0 | 11.0 | 0.00 | 0.01 | 0.00 | 59 | 1007.5 |
| 20260506153017 | 44 | 315 | 4.0 | 10.0 | 0.00 | 0.01 | 0.00 | 59 | 1007.5 |
| 20260506152017 | 44 | 338 | 3.0 | 9.0 | 0.00 | 0.01 | 0.00 | 58 | 1007.6 |
| 20260506151017 | 45 | 0 | 4.0 | 9.0 | 0.00 | 0.01 | 0.00 | 57 | 1007.6 |
| 20260506150037 | 45 | 23 | 3.0 | 8.0 | 0.00 | 0.01 | 0.00 | 59 | 1007.6 |
| 20260506145017 | 44 | 45 | 3.0 | 8.0 | 0.00 | 0.01 | 0.00 | 62 | 1007.7 |
| 20260506144017 | 44 | 23 | 3.0 | 10.0 | 0.00 | 0.01 | 0.00 | 66 | 1007.8 |
| 20260506143017 | 43 | 0 | 2.0 | 5.0 | 0.00 | 0.01 | 0.00 | 67 | 1007.8 |
| 20260506142017 | 43 | 315 | 1.0 | 4.0 | 0.00 | 0.01 | 0.00 | 71 | 1007.9 |
| 20260506141017 | 42 | 338 | 2.0 | 4.0 | 0.00 | 0.02 | 0.00 | 75 | 1007.9 |
| 20260506140017 | 41 | 270 | 3.0 | 8.0 | 0.00 | 0.02 | 0.00 | 73 | 1007.9 |
| 20260506135037 | 41 | 293 | 4.0 | 8.0 | 0.00 | 0.02 | 0.00 | 72 | 1007.9 |
| 20260506134017 | 41 | 45 | 2.0 | 6.0 | 0.00 | 0.02 | 0.00 | 71 | 1007.8 |